• Join FlightAware (Why Join?)
  • Login
  • US Flag 
10:31PM EDT


 

Airport Tracker/Info


-or-


 

Live Flight TrackerFlight Track Log ✈ N966QS ✈ 21-Jun-2013 ✈ KMIA - KSSI

Flight Track Log - Related Links

Times and Time Zones

All times are in EDT time to prevent confusion due to time zone crossing. See the N966QS flight status page for this flight to view local times or setup timezone preferences in your user account.

Time Position Orientation Groundspeed Altitude Reporting Facility
EDT Latitude Longitude Course Direction KTS MPH feet Rate Location/Type
09:45AM 25.8003 -80.2744 80° East 165 190 1,000  Level Miami Center
09:46AM 25.8050 -80.2447 80° East 205 236 3,100 3,780 Climbing Miami Center
09:47AM 25.8131 -80.1733 83° East 266 306 6,800 1,860 Climbing Miami Center
09:48AM 25.8886 -80.1500 16° North 289 333 7,000 60 Climbing Miami Center
09:49AM 25.9700 -80.1614 353° North 288 331 7,000 720 Level Miami Center
09:50AM 26.0383 -80.1797 346° North 294 338 8,500 1,740 Climbing Miami Center
09:51AM 26.1219 -80.2767 314° West 316 364 11,000 1,800 Climbing Miami Center
09:52AM 26.1844 -80.3664 308° West 343 395 12,900 1,860 Climbing Miami Center
09:53AM 26.2494 -80.4403 314° West 365 420 14,800 1,860 Climbing Miami Center
09:54AM 26.3589 -80.4922 337° Northwest 378 435 16,700 1,680 Climbing Miami Center
09:55AM 26.4519 -80.5369 337° Northwest 394 453 18,200 1,620 Climbing Miami Center
09:56AM 26.5653 -80.5914 337° Northwest 402 463 20,000 1,440 Climbing Miami Center
09:57AM 26.6603 -80.6364 337° Northwest 408 470 21,100 1,200 Climbing Miami Center
09:58AM 26.7819 -80.6961 336° Northwest 419 482 22,500 1,380 Climbing Miami Center
09:59AM 26.8956 -80.7369 342° North 419 482 23,900 1,440 Climbing Miami Center
10:00AM 27.0156 -80.7808 342° North 430 495 25,400 1,440 Climbing Miami Center
10:01AM 27.1333 -80.8244 342° North 441 507 26,800 1,260 Climbing Miami Center
10:02AM 27.2553 -80.8681 342° North 441 507 28,000 600 Climbing Miami Center
10:03AM 27.3669 -80.9072 343° North 452 520 28,000  Level Miami Center
10:04AM 27.5014 -80.9539 343° North 476 548 28,000  Level Miami Center
10:05AM 27.6314 -81.0033 341° North 490 564 28,000  Level Miami Center
10:06AM 27.7656 -81.0528 342° North 496 571 28,000  Level Miami Center
10:07AM 27.9000 -81.1022 342° North 501 577 28,000  Level Miami Center
10:08AM 28.0486 -81.1547 343° North 507 583 28,000 -300 Level Miami Center
10:11AM 28.3903 -81.2833 342° North 513 590 27,000 -300 Descending Jacksonville Center
10:12AM 28.5244 -81.3308 343° North 513 590 27,000  Level Jacksonville Center
10:13AM 28.6644 -81.3500 353° North 502 578 27,000 -540 Level Jacksonville Center
10:14AM 28.7944 -81.4000 341° North 497 572 26,000 -1,260 Descending Jacksonville Center
10:15AM 28.9081 -81.4908 325° Northwest 483 556 24,500 -1,500 Descending Jacksonville Center
10:16AM 29.0197 -81.5772 326° Northwest 490 564 23,000 -1,500 Descending Jacksonville Center
10:17AM 29.1514 -81.6039 350° North 475 547 21,500 -1,500 Descending Jacksonville Center
10:18AM 29.2664 -81.6189 354° North 461 531 20,100 -1,500 Descending Jacksonville Center
10:19AM 29.3939 -81.6317 355° North 461 531 18,600 -1,440 Descending Jacksonville Center
10:20AM 29.5214 -81.6419 356° North 461 531 17,300 -1,320 Descending Jacksonville Center
10:21AM 29.6425 -81.6500 357° North 456 525 16,000 -660 Descending Jacksonville Center
10:22AM 29.7617 -81.6747 350° North 444 511 16,000  Level Jacksonville Center
10:23AM 29.8933 -81.6972 352° North 446 513 16,000  Level Jacksonville Center
10:23AM 29.9767 -81.6647 19° North 448 516 16,000 -660 Level Jacksonville Center
10:24AM 30.0806 -81.6228 19° North 424 488 15,000 -900 Descending Jacksonville Center
10:25AM 30.2117 -81.5633 21° North 411 473 14,100 -1,320 Descending Jacksonville Center
10:26AM 30.3031 -81.5283 18° North 401 461 12,300 -2,040 Descending Jacksonville Center
10:27AM 30.4008 -81.4836 22° Northeast 332 382 10,200 -2,100 Descending Jacksonville Center
10:29AM 30.4881 -81.4439 21° North 300 345 7,700 -1,920 Descending Jacksonville Center
10:30AM 30.5631 -81.4403 North 281 323 6,000 -900 Descending Jacksonville Center
10:31AM 30.6464 -81.4342 North 276 318 5,900 -60 Descending Jacksonville Center
10:32AM 30.7133 -81.4331 North 256 295 5,900  Level Jacksonville Center
10:33AM 30.7739 -81.4369 357° North 233 268 6,000 -660 Climbing Jacksonville Center
10:34AM 30.8325 -81.4386 359° North 215 247 4,600 -1,080 Descending Jacksonville Center
10:35AM 30.8889 -81.4425 357° North 215 247 3,900 -300 Descending Jacksonville Center
10:36AM 30.9472 -81.4442 359° North 210 242 4,000  Climbing Jacksonville Center
10:37AM 31.0017 -81.4456 359° North 203 234 4,000  Level Jacksonville Center
10:38AM 31.0558 -81.4497 356° North 198 228 4,000 -360 Level Jacksonville Center
10:39AM 31.0533 -81.4036 94° East 97 112 3,300 -1,020 Descending Jacksonville Center
10:40AM 31.0033 -81.4239 199° South 70 81 2,000 -660 Descending Jacksonville Center
10:41AM 31.0039 -81.4675 271° West 87 100 2,000 -60 Level Jacksonville Center
10:42AM 31.0392 -81.4522 20° North 57 66 1,900 -360 Descending Jacksonville Center
10:43AM 31.0706 -81.4397 19° North 82 94 1,300 -600 Descending Jacksonville Center